Hauptseite
METAR-TAF:

METAR-TAF

Flughäfen :

La Chaux-de-Fonds, Schweiz

Flugplatz Les Eplatures

Breite: 47-05-03N, Länge: 006-47-37E, Höhe: 1027 m

Beobachtung

Neuester Wetterbericht von vor 32 Minuten, um 19:50 UTC
Wind 1 kt aus Nord
Temperatur -2°C
Luftfeuchtigkeit 93%
Luftdruck 1024 hPa
Sichtweite 10 km oder mehr
Geschlossene Wolkendecke in der Höhe von 400 ft

METAR: LSGC 181950Z AUTO 35001KT 9999 OVC004 M02/M03 Q1024

Zeit: 21:22 (20:22 UTC)

Prognose

Neuester Wetterbericht von vor 5 Stunden und 57 Minuten, um 14:25 UTC
Gültige Prognose vom 18 um 15 UTC bis 18 um 24 UTC
Wind 5 kt aus Südwest
Sichtweite: 3000 m
in der Höhe von 800 ft
Schnee leicht
Übergehend zu
vom 18 um 17 UTC bis 18 um 19 UTC
Sichtweite: 5000 m
Geschlossene Wolkendecke in der Höhe von 1500 ft

TAF: LSGC 181425Z 1815/1824 23005KT 3000 -SN VV008 BECMG 1817/1819 5000 NSW OVC015

Wetterbeobachtungen und Prognosen von mehr als 4000 Flughäfen (METAR und TAF Bericht).

Die verfügbaren Stationen werden durch gelbe und rote Markierungen auf der Karte dargestellt.

Führen Sie die Maus auf sie, um den Namen der Station zu sehen.

Darauf klicken, um die Beobachtung von Wetterbeobachtungen und Prognosen zu sehen.

Um die Karte zu ändern : klicken Sie auf den grünen Tasten mit einem schwarzen Kreuz Zum Vergrößern, auf den grünen Button mit einem Gedankenstrich zu verkleinern, oder auf die grünen Pfeile für benachbarte Karten.


METAR-TAF: